sensor_id;sensor_type;location;lat;lon;timestamp;P1;P2;P0
33948;PMS7003;20229;49.856;19.030;2023-02-11T00:04:42;51;35;22
33948;PMS7003;20229;49.856;19.030;2023-02-11T00:10:05;54;39;20
33948;PMS7003;20229;49.856;19.030;2023-02-11T00:15:11;57;42;23
33948;PMS7003;20229;49.856;19.030;2023-02-11T00:20:30;39;28;9
33948;PMS7003;20229;49.856;19.030;2023-02-11T00:25:37;31;20;8
33948;PMS7003;20229;49.856;19.030;2023-02-11T00:30:57;16;10;2
33948;PMS7003;20229;49.856;19.030;2023-02-11T00:36:04;14;10;2
33948;PMS7003;20229;49.856;19.030;2023-02-11T00:41:22;21;15;7
33948;PMS7003;20229;49.856;19.030;2023-02-11T00:46:27;21;14;7
33948;PMS7003;20229;49.856;19.030;2023-02-11T00:51:48;18;13;4
33948;PMS7003;20229;49.856;19.030;2023-02-11T00:56:52;17;15;7
33948;PMS7003;20229;49.856;19.030;2023-02-11T01:02:14;28;22;13
33948;PMS7003;20229;49.856;19.030;2023-02-11T01:07:18;47;36;25
33948;PMS7003;20229;49.856;19.030;2023-02-11T01:12:40;28;22;13
33948;PMS7003;20229;49.856;19.030;2023-02-11T01:17:44;22;19;9
33948;PMS7003;20229;49.856;19.030;2023-02-11T01:23:06;32;24;14
33948;PMS7003;20229;49.856;19.030;2023-02-11T01:33:32;26;21;13
33948;PMS7003;20229;49.856;19.030;2023-02-11T01:38:36;26;22;15
33948;PMS7003;20229;49.856;19.030;2023-02-11T01:44:20;31;25;15
33948;PMS7003;20229;49.856;19.030;2023-02-11T01:49:16;26;22;13
33948;PMS7003;20229;49.856;19.030;2023-02-11T01:54:25;38;32;21
33948;PMS7003;20229;49.856;19.030;2023-02-11T01:59:51;23;17;9
33948;PMS7003;20229;49.856;19.030;2023-02-11T02:10:16;32;26;16
33948;PMS7003;20229;49.856;19.030;2023-02-11T02:36:22;15;12;7
33948;PMS7003;20229;49.856;19.030;2023-02-11T02:41:31;27;24;17
33948;PMS7003;20229;49.856;19.030;2023-02-11T02:46:36;19;17;10
33948;PMS7003;20229;49.856;19.030;2023-02-11T02:51:50;27;24;15
33948;PMS7003;20229;49.856;19.030;2023-02-11T03:12:43;27;23;16
33948;PMS7003;20229;49.856;19.030;2023-02-11T03:17:51;25;22;14
33948;PMS7003;20229;49.856;19.030;2023-02-11T03:23:17;28;23;14
33948;PMS7003;20229;49.856;19.030;2023-02-11T03:38:47;21;20;15
33948;PMS7003;20229;49.856;19.030;2023-02-11T03:43:55;21;17;13
33948;PMS7003;20229;49.856;19.030;2023-02-11T03:49:09;22;19;13
33948;PMS7003;20229;49.856;19.030;2023-02-11T03:54:16;24;19;14
33948;PMS7003;20229;49.856;19.030;2023-02-11T04:04:49;45;40;36
33948;PMS7003;20229;49.856;19.030;2023-02-11T04:10:00;13;10;5
33948;PMS7003;20229;49.856;19.030;2023-02-11T04:15:03;9;8;1
33948;PMS7003;20229;49.856;19.030;2023-02-11T04:20:25;10;8;2
33948;PMS7003;20229;49.856;19.030;2023-02-11T04:25:29;13;12;7
33948;PMS7003;20229;49.856;19.030;2023-02-11T04:30:51;11;11;6
33948;PMS7003;20229;49.856;19.030;2023-02-11T04:35:54;15;11;7
33948;PMS7003;20229;49.856;19.030;2023-02-11T04:41:17;18;15;8
33948;PMS7003;20229;49.856;19.030;2023-02-11T04:46:20;17;16;11
33948;PMS7003;20229;49.856;19.030;2023-02-11T04:51:43;21;19;13
33948;PMS7003;20229;49.856;19.030;2023-02-11T04:56:49;24;21;15
33948;PMS7003;20229;49.856;19.030;2023-02-11T05:02:09;21;19;13
33948;PMS7003;20229;49.856;19.030;2023-02-11T05:07:12;23;19;13
33948;PMS7003;20229;49.856;19.030;2023-02-11T05:12:34;25;21;13
33948;PMS7003;20229;49.856;19.030;2023-02-11T05:17:38;28;21;14
33948;PMS7003;20229;49.856;19.030;2023-02-11T05:23:01;24;17;11
33948;PMS7003;20229;49.856;19.030;2023-02-11T05:28:04;16;15;8
33948;PMS7003;20229;49.856;19.030;2023-02-11T05:33:26;22;17;12
33948;PMS7003;20229;49.856;19.030;2023-02-11T05:38:30;24;14;10
33948;PMS7003;20229;49.856;19.030;2023-02-11T05:43:52;21;18;11
33948;PMS7003;20229;49.856;19.030;2023-02-11T05:48:55;21;17;12
33948;PMS7003;20229;49.856;19.030;2023-02-11T05:54:18;14;13;5
33948;PMS7003;20229;49.856;19.030;2023-02-11T05:59:21;19;18;10
33948;PMS7003;20229;49.856;19.030;2023-02-11T06:04:43;25;20;12
33948;PMS7003;20229;49.856;19.030;2023-02-11T06:09:47;24;19;13
33948;PMS7003;20229;49.856;19.030;2023-02-11T06:15:09;20;19;12
33948;PMS7003;20229;49.856;19.030;2023-02-11T06:20:13;27;21;15
33948;PMS7003;20229;49.856;19.030;2023-02-11T06:25:36;20;17;12
33948;PMS7003;20229;49.856;19.030;2023-02-11T06:30:39;22;17;8
33948;PMS7003;20229;49.856;19.030;2023-02-11T06:36:01;15;11;8
33948;PMS7003;20229;49.856;19.030;2023-02-11T06:41:05;22;17;11
33948;PMS7003;20229;49.856;19.030;2023-02-11T06:46:26;18;15;8
33948;PMS7003;20229;49.856;19.030;2023-02-11T06:51:30;14;11;7
33948;PMS7003;20229;49.856;19.030;2023-02-11T06:56:52;23;19;10
33948;PMS7003;20229;49.856;19.030;2023-02-11T07:01:55;19;16;9
33948;PMS7003;20229;49.856;19.030;2023-02-11T07:07:18;22;20;13
33948;PMS7003;20229;49.856;19.030;2023-02-11T07:12:24;25;18;10
33948;PMS7003;20229;49.856;19.030;2023-02-11T07:17:44;24;21;14
33948;PMS7003;20229;49.856;19.030;2023-02-11T07:22:47;24;18;11
33948;PMS7003;20229;49.856;19.030;2023-02-11T07:28:09;25;20;13
33948;PMS7003;20229;49.856;19.030;2023-02-11T07:33:13;22;17;11
33948;PMS7003;20229;49.856;19.030;2023-02-11T07:38:35;26;21;16
33948;PMS7003;20229;49.856;19.030;2023-02-11T07:43:39;22;19;14
33948;PMS7003;20229;49.856;19.030;2023-02-11T07:49:01;13;8;4
33948;PMS7003;20229;49.856;19.030;2023-02-11T07:54:05;26;22;16
33948;PMS7003;20229;49.856;19.030;2023-02-11T07:59:27;26;22;15
33948;PMS7003;20229;49.856;19.030;2023-02-11T08:04:30;19;15;9
33948;PMS7003;20229;49.856;19.030;2023-02-11T08:09:53;15;12;8
33948;PMS7003;20229;49.856;19.030;2023-02-11T08:14:57;25;22;17
33948;PMS7003;20229;49.856;19.030;2023-02-11T08:20:18;35;24;16
33948;PMS7003;20229;49.856;19.030;2023-02-11T08:25:22;22;16;11
33948;PMS7003;20229;49.856;19.030;2023-02-11T08:30:44;43;35;26
33948;PMS7003;20229;49.856;19.030;2023-02-11T08:35:47;84;72;65
33948;PMS7003;20229;49.856;19.030;2023-02-11T08:41:10;91;86;78
33948;PMS7003;20229;49.856;19.030;2023-02-11T08:46:17;60;48;37
33948;PMS7003;20229;49.856;19.030;2023-02-11T08:51:36;39;33;25
33948;PMS7003;20229;49.856;19.030;2023-02-11T08:56:40;96;90;82
33948;PMS7003;20229;49.856;19.030;2023-02-11T09:02:02;49;41;30
33948;PMS7003;20229;49.856;19.030;2023-02-11T09:07:06;91;86;79
33948;PMS7003;20229;49.856;19.030;2023-02-11T09:12:29;48;41;29
33948;PMS7003;20229;49.856;19.030;2023-02-11T09:17:32;75;63;56
33948;PMS7003;20229;49.856;19.030;2023-02-11T09:22:55;53;45;32
33948;PMS7003;20229;49.856;19.030;2023-02-11T09:28:19;58;46;34
33948;PMS7003;20229;49.856;19.030;2023-02-11T09:33:46;86;77;67
33948;PMS7003;20229;49.856;19.030;2023-02-11T09:38:51;85;73;65
33948;PMS7003;20229;49.856;19.030;2023-02-11T09:54:48;76;62;50
33948;PMS7003;20229;49.856;19.030;2023-02-11T09:59:55;87;75;64
33948;PMS7003;20229;49.856;19.030;2023-02-11T10:26:17;110;96;86
33948;PMS7003;20229;49.856;19.030;2023-02-11T10:36:30;105;92;79
33948;PMS7003;20229;49.856;19.030;2023-02-11T10:41:37;108;95;81
33948;PMS7003;20229;49.856;19.030;2023-02-11T10:46:48;62;53;41
33948;PMS7003;20229;49.856;19.030;2023-02-11T10:51:56;84;73;60
33948;PMS7003;20229;49.856;19.030;2023-02-11T10:57:16;45;35;21
33948;PMS7003;20229;49.856;19.030;2023-02-11T11:07:39;66;52;38
33948;PMS7003;20229;49.856;19.030;2023-02-11T11:12:53;62;50;38
33948;PMS7003;20229;49.856;19.030;2023-02-11T11:23:20;67;53;40
33948;PMS7003;20229;49.856;19.030;2023-02-11T11:33:46;68;55;40
33948;PMS7003;20229;49.856;19.030;2023-02-11T11:38:57;65;54;40
33948;PMS7003;20229;49.856;19.030;2023-02-11T11:54:37;71;57;43
33948;PMS7003;20229;49.856;19.030;2023-02-11T11:59:49;57;46;32
33948;PMS7003;20229;49.856;19.030;2023-02-11T12:15:35;75;65;58
33948;PMS7003;20229;49.856;19.030;2023-02-11T12:20:59;68;55;39
33948;PMS7003;20229;49.856;19.030;2023-02-11T12:36:44;70;56;42
33948;PMS7003;20229;49.856;19.030;2023-02-11T12:47:29;71;56;40
33948;PMS7003;20229;49.856;19.030;2023-02-11T12:57:55;71;56;41
33948;PMS7003;20229;49.856;19.030;2023-02-11T13:03:03;30;25;15
33948;PMS7003;20229;49.856;19.030;2023-02-11T13:45:15;103;94;87
33948;PMS7003;20229;49.856;19.030;2023-02-11T13:50:22;94;87;78
33948;PMS7003;20229;49.856;19.030;2023-02-11T13:55:27;116;113;104
33948;PMS7003;20229;49.856;19.030;2023-02-11T14:06:09;88;77;66
33948;PMS7003;20229;49.856;19.030;2023-02-11T14:16:31;86;71;53
33948;PMS7003;20229;49.856;19.030;2023-02-11T14:21:37;73;56;38
33948;PMS7003;20229;49.856;19.030;2023-02-11T14:42:32;69;54;39
33948;PMS7003;20229;49.856;19.030;2023-02-11T14:47:40;58;44;29
33948;PMS7003;20229;49.856;19.030;2023-02-11T14:52:47;55;41;29
33948;PMS7003;20229;49.856;19.030;2023-02-11T15:03:22;58;46;33
33948;PMS7003;20229;49.856;19.030;2023-02-11T15:08:22;70;56;43
33948;PMS7003;20229;49.856;19.030;2023-02-11T15:13:26;71;57;46
33948;PMS7003;20229;49.856;19.030;2023-02-11T15:18:34;74;61;49
33948;PMS7003;20229;49.856;19.030;2023-02-11T15:23:42;79;66;55
33948;PMS7003;20229;49.856;19.030;2023-02-11T15:28:57;76;62;55
33948;PMS7003;20229;49.856;19.030;2023-02-11T15:34:05;73;63;55
33948;PMS7003;20229;49.856;19.030;2023-02-11T15:44:29;83;72;60
33948;PMS7003;20229;49.856;19.030;2023-02-11T15:49:34;74;65;54
33948;PMS7003;20229;49.856;19.030;2023-02-11T15:54:37;78;73;64
33948;PMS7003;20229;49.856;19.030;2023-02-11T15:59:53;66;58;50
33948;PMS7003;20229;49.856;19.030;2023-02-11T16:04:59;68;60;50
33948;PMS7003;20229;49.856;19.030;2023-02-11T16:10:23;64;52;41
33948;PMS7003;20229;49.856;19.030;2023-02-11T16:20:46;59;49;38
33948;PMS7003;20229;49.856;19.030;2023-02-11T16:25:53;66;52;45
33948;PMS7003;20229;49.856;19.030;2023-02-11T16:31:08;61;48;40
33948;PMS7003;20229;49.856;19.030;2023-02-11T16:36:14;55;45;32
33948;PMS7003;20229;49.856;19.030;2023-02-11T16:41:34;55;43;31
33948;PMS7003;20229;49.856;19.030;2023-02-11T16:46:38;57;45;32
33948;PMS7003;20229;49.856;19.030;2023-02-11T16:52:01;63;47;35
33948;PMS7003;20229;49.856;19.030;2023-02-11T17:02:30;54;43;31
33948;PMS7003;20229;49.856;19.030;2023-02-11T17:07:36;50;39;26
33948;PMS7003;20229;49.856;19.030;2023-02-11T17:12:52;32;25;15
33948;PMS7003;20229;49.856;19.030;2023-02-11T17:17:56;40;34;24
33948;PMS7003;20229;49.856;19.030;2023-02-11T17:23:18;40;32;22
33948;PMS7003;20229;49.856;19.030;2023-02-11T17:28:21;36;31;21
33948;PMS7003;20229;49.856;19.030;2023-02-11T17:33:44;37;31;22
33948;PMS7003;20229;49.856;19.030;2023-02-11T17:38:49;36;30;21
33948;PMS7003;20229;49.856;19.030;2023-02-11T17:44:10;42;32;22
33948;PMS7003;20229;49.856;19.030;2023-02-11T17:49:18;33;27;16
33948;PMS7003;20229;49.856;19.030;2023-02-11T17:54:36;43;33;23
33948;PMS7003;20229;49.856;19.030;2023-02-11T17:59:39;38;30;20
33948;PMS7003;20229;49.856;19.030;2023-02-11T18:05:02;43;34;23
33948;PMS7003;20229;49.856;19.030;2023-02-11T18:10:06;39;29;19
33948;PMS7003;20229;49.856;19.030;2023-02-11T18:15:28;33;27;16
33948;PMS7003;20229;49.856;19.030;2023-02-11T18:20:31;42;33;20
33948;PMS7003;20229;49.856;19.030;2023-02-11T18:25:53;36;28;19
33948;PMS7003;20229;49.856;19.030;2023-02-11T18:30:57;44;32;23
33948;PMS7003;20229;49.856;19.030;2023-02-11T18:36:20;40;33;23
33948;PMS7003;20229;49.856;19.030;2023-02-11T18:41:24;48;38;27
33948;PMS7003;20229;49.856;19.030;2023-02-11T18:46:45;32;28;18
33948;PMS7003;20229;49.856;19.030;2023-02-11T18:51:48;41;31;20
33948;PMS7003;20229;49.856;19.030;2023-02-11T18:57:11;46;37;25
33948;PMS7003;20229;49.856;19.030;2023-02-11T19:02:15;38;32;23
33948;PMS7003;20229;49.856;19.030;2023-02-11T19:07:37;42;31;21
33948;PMS7003;20229;49.856;19.030;2023-02-11T19:12:40;43;33;22
33948;PMS7003;20229;49.856;19.030;2023-02-11T19:18:03;41;32;21
33948;PMS7003;20229;49.856;19.030;2023-02-11T19:23:06;41;32;21
33948;PMS7003;20229;49.856;19.030;2023-02-11T19:28:32;39;30;21
33948;PMS7003;20229;49.856;19.030;2023-02-11T19:33:38;42;31;22
33948;PMS7003;20229;49.856;19.030;2023-02-11T19:38:55;45;36;25
33948;PMS7003;20229;49.856;19.030;2023-02-11T19:44:03;44;34;23
33948;PMS7003;20229;49.856;19.030;2023-02-11T19:49:20;53;42;29
33948;PMS7003;20229;49.856;19.030;2023-02-11T19:54:28;54;40;27
33948;PMS7003;20229;49.856;19.030;2023-02-11T19:59:47;48;38;26
33948;PMS7003;20229;49.856;19.030;2023-02-11T20:04:51;35;29;20
33948;PMS7003;20229;49.856;19.030;2023-02-11T20:10:12;52;40;27
33948;PMS7003;20229;49.856;19.030;2023-02-11T20:15:15;46;35;24
33948;PMS7003;20229;49.856;19.030;2023-02-11T20:20:38;36;28;20
33948;PMS7003;20229;49.856;19.030;2023-02-11T20:25:42;41;32;21
33948;PMS7003;20229;49.856;19.030;2023-02-11T20:31:04;54;42;29
33948;PMS7003;20229;49.856;19.030;2023-02-11T20:36:09;42;34;24
33948;PMS7003;20229;49.856;19.030;2023-02-11T20:41:33;42;34;24
33948;PMS7003;20229;49.856;19.030;2023-02-11T20:46:44;42;34;24
33948;PMS7003;20229;49.856;19.030;2023-02-11T20:51:56;42;34;24
33948;PMS7003;20229;49.856;19.030;2023-02-11T20:57:00;52;42;30
33948;PMS7003;20229;49.856;19.030;2023-02-11T21:02:22;47;38;27
33948;PMS7003;20229;49.856;19.030;2023-02-11T21:07:25;47;36;25
33948;PMS7003;20229;49.856;19.030;2023-02-11T21:12:48;46;36;26
33948;PMS7003;20229;49.856;19.030;2023-02-11T21:17:51;50;40;28
33948;PMS7003;20229;49.856;19.030;2023-02-11T21:23:14;54;40;28
33948;PMS7003;20229;49.856;19.030;2023-02-11T21:28:17;48;36;26
33948;PMS7003;20229;49.856;19.030;2023-02-11T21:33:40;46;35;26
33948;PMS7003;20229;49.856;19.030;2023-02-11T21:38:43;49;37;27
33948;PMS7003;20229;49.856;19.030;2023-02-11T21:44:06;45;37;28
33948;PMS7003;20229;49.856;19.030;2023-02-11T21:49:09;61;49;38
33948;PMS7003;20229;49.856;19.030;2023-02-11T21:54:32;49;39;29
33948;PMS7003;20229;49.856;19.030;2023-02-11T21:59:35;52;40;29
33948;PMS7003;20229;49.856;19.030;2023-02-11T22:04:58;51;39;30
33948;PMS7003;20229;49.856;19.030;2023-02-11T22:10:02;55;41;30
33948;PMS7003;20229;49.856;19.030;2023-02-11T22:15:24;52;41;29
33948;PMS7003;20229;49.856;19.030;2023-02-11T22:20:27;58;44;33
33948;PMS7003;20229;49.856;19.030;2023-02-11T22:25:50;50;41;29
33948;PMS7003;20229;49.856;19.030;2023-02-11T22:30:54;45;36;25
33948;PMS7003;20229;49.856;19.030;2023-02-11T22:36:20;58;48;39
33948;PMS7003;20229;49.856;19.030;2023-02-11T22:41:28;54;42;31
33948;PMS7003;20229;49.856;19.030;2023-02-11T22:46:43;47;39;29
33948;PMS7003;20229;49.856;19.030;2023-02-11T22:51:46;49;40;28
33948;PMS7003;20229;49.856;19.030;2023-02-11T22:57:08;48;37;28
33948;PMS7003;20229;49.856;19.030;2023-02-11T23:02:11;50;40;30
33948;PMS7003;20229;49.856;19.030;2023-02-11T23:07:34;56;43;32
33948;PMS7003;20229;49.856;19.030;2023-02-11T23:12:37;54;42;30
33948;PMS7003;20229;49.856;19.030;2023-02-11T23:18:00;48;39;29
33948;PMS7003;20229;49.856;19.030;2023-02-11T23:23:03;54;40;30
33948;PMS7003;20229;49.856;19.030;2023-02-11T23:28:26;49;38;28
33948;PMS7003;20229;49.856;19.030;2023-02-11T23:33:30;49;39;28
33948;PMS7003;20229;49.856;19.030;2023-02-11T23:38:52;53;41;31
33948;PMS7003;20229;49.856;19.030;2023-02-11T23:43:56;54;42;32
33948;PMS7003;20229;49.856;19.030;2023-02-11T23:49:18;58;49;41
33948;PMS7003;20229;49.856;19.030;2023-02-11T23:54:21;55;43;32
33948;PMS7003;20229;49.856;19.030;2023-02-11T23:59:47;61;53;45
